Time;durP1;ratioP1;P1;durP2;ratioP2;P2;SDS_P1;SDS_P2;PMS_P1;PMS_P2;Temp;Humidity;BMP_temperature;BMP_pressure;BME280_temperature;BME280_humidity;BME280_pressure;Samples;Min_cycle;Max_cycle;Signal;HPM_P1;HPM_P2
2021/11/04 00:00:16;;;;;;;92.13;38.87;;;6.80;99.90;;;;;;5075187;28;20201;-61
2021/11/04 00:02:43;;;;;;;90.00;38.57;;;6.90;99.90;;;;;;5074892;28;20631;-62
2021/11/04 00:05:11;;;;;;;86.03;37.87;;;6.90;25.10;;;;;;5074442;28;20213;-62
2021/11/04 00:07:38;;;;;;;87.03;38.73;;;6.80;99.90;;;;;;5074945;28;20210;-61
2021/11/04 00:10:06;;;;;;;81.23;37.27;;;6.90;1.10;;;;;;5074767;28;20250;-60
2021/11/04 00:12:35;;;;;;;88.80;37.47;;;6.80;1.00;;;;;;5074970;28;20225;-61
2021/11/04 00:15:02;;;;;;;85.33;38.40;;;6.80;1.00;;;;;;5074597;28;20205;-61
2021/11/04 00:17:29;;;;;;;82.10;36.80;;;6.80;1.00;;;;;;5074894;28;20258;-62
2021/11/04 00:19:55;;;;;;;88.33;37.97;;;6.80;1.00;;;;;;5074830;28;20212;-62
2021/11/04 00:22:22;;;;;;;88.17;38.30;;;6.80;1.00;;;;;;5074541;28;20255;-62
2021/11/04 00:24:49;;;;;;;77.33;36.57;;;6.80;1.00;;;;;;5074543;28;20212;-62
2021/11/04 00:27:15;;;;;;;92.57;39.17;;;6.80;1.00;;;;;;5074821;28;20221;-61
2021/11/04 00:29:43;;;;;;;91.27;40.07;;;6.80;1.00;;;;;;5074707;28;20205;-62
2021/11/04 00:32:10;;;;;;;92.77;40.50;;;6.80;1.00;;;;;;5074457;28;20228;-62
2021/11/04 00:34:37;;;;;;;92.00;38.87;;;6.90;48.80;;;;;;5074133;28;20208;-62
2021/11/04 00:37:03;;;;;;;89.67;38.33;;;6.90;1.00;;;;;;5074004;28;20255;-62
2021/11/04 00:39:30;;;;;;;86.73;38.37;;;6.80;6.70;;;;;;5074319;28;20212;-62
2021/11/04 00:41:57;;;;;;;88.60;38.20;;;6.90;1.00;;;;;;5074352;28;20670;-62
2021/11/04 00:44:23;;;;;;;84.53;37.83;;;6.80;8.50;;;;;;5074464;28;20205;-60
2021/11/04 00:46:51;;;;;;;90.10;38.07;;;6.80;1.00;;;;;;5073884;28;20221;-60
2021/11/04 00:49:18;;;;;;;89.60;38.67;;;6.80;98.90;;;;;;5073834;28;20205;-59
2021/11/04 00:51:45;;;;;;;87.57;38.00;;;6.80;99.90;;;;;;5073841;28;20216;-60
2021/11/04 00:54:11;;;;;;;89.00;37.90;;;6.90;78.90;;;;;;5074373;28;20210;-60
2021/11/04 00:56:38;;;;;;;86.37;37.67;;;6.90;45.70;;;;;;5073686;28;20735;-59
2021/11/04 00:59:05;;;;;;;84.83;39.20;;;6.90;1.00;;;;;;5074048;28;20873;-60
2021/11/04 01:01:31;;;;;;;86.37;38.50;;;6.90;1.00;;;;;;5073995;28;20201;-59
2021/11/04 01:03:59;;;;;;;84.13;39.47;;;6.90;1.00;;;;;;5073739;28;20648;-59
2021/11/04 01:06:27;;;;;;;88.20;38.87;;;6.80;1.00;;;;;;5073285;28;20783;-60
2021/11/04 01:08:54;;;;;;;88.40;39.33;;;6.70;1.00;;;;;;5073964;28;20235;-62
2021/11/04 01:11:22;;;;;;;85.23;37.33;;;6.80;41.50;;;;;;5073995;28;20254;-60
2021/11/04 01:13:49;;;;;;;88.00;38.83;;;6.80;1.00;;;;;;5073663;28;20256;-61
2021/11/04 01:16:17;;;;;;;86.13;37.63;;;6.70;1.00;;;;;;5073398;28;20196;-62
2021/11/04 01:18:44;;;;;;;92.43;38.33;;;6.70;1.00;;;;;;5073613;28;20212;-62
2021/11/04 01:21:12;;;;;;;81.90;35.73;;;6.70;1.00;;;;;;5073687;28;20277;-62
2021/11/04 01:23:39;;;;;;;84.23;37.63;;;6.60;1.00;;;;;;5073450;28;20229;-62
2021/11/04 01:26:06;;;;;;;92.53;38.77;;;6.70;1.00;;;;;;5073176;28;20570;-62
2021/11/04 01:28:33;;;;;;;88.93;39.07;;;6.70;99.90;;;;;;5073602;28;20640;-62
2021/11/04 01:31:00;;;;;;;84.03;38.00;;;6.60;99.90;;;;;;5073340;28;20217;-62
2021/11/04 01:33:27;;;;;;;98.07;41.07;;;6.60;1.00;;;;;;5073184;28;20221;-61
2021/11/04 01:35:54;;;;;;;97.07;40.03;;;6.50;1.00;;;;;;5073144;28;20274;-62
2021/11/04 01:38:22;;;;;;;88.90;38.23;;;6.40;99.90;;;;;;5073355;28;20217;-62
2021/11/04 01:40:50;;;;;;;100.77;40.03;;;6.50;99.90;;;;;;5073305;28;20631;-61
2021/11/04 01:43:17;;;;;;;96.17;38.33;;;6.50;99.90;;;;;;5073023;28;20231;-62
2021/11/04 01:45:44;;;;;;;92.03;39.27;;;6.60;99.90;;;;;;5072616;28;20609;-62
2021/11/04 01:48:11;;;;;;;92.63;38.50;;;6.60;99.90;;;;;;5073067;28;20197;-62
2021/11/04 01:50:38;;;;;;;96.70;39.07;;;6.60;99.90;;;;;;5073184;28;20209;-62
2021/11/04 01:53:05;;;;;;;96.53;38.53;;;6.60;99.90;;;;;;5072950;28;20644;-60
2021/11/04 01:55:33;;;;;;;96.57;39.47;;;6.60;99.90;;;;;;5072578;28;20281;-59
2021/11/04 01:58:02;;;;;;;105.87;42.70;;;6.60;99.90;;;;;;5072921;28;20212;-60
2021/11/04 02:00:31;;;;;;;96.80;40.53;;;6.60;99.90;;;;;;5071985;28;20296;-60
2021/11/04 02:03:08;;;;;;;103.37;41.17;;;6.60;99.90;;;;;;5072652;28;20707;-60
2021/11/04 02:05:40;;;;;;;103.67;40.17;;;6.60;99.90;;;;;;5072503;28;20591;-60
2021/11/04 02:08:12;;;;;;;89.73;39.50;;;6.60;99.90;;;;;;5072765;28;20643;-60
2021/11/04 02:10:47;;;;;;;97.77;39.57;;;6.60;99.90;;;;;;5072167;28;20209;-59
2021/11/04 02:13:18;;;;;;;94.60;39.30;;;6.60;99.90;;;;;;5071714;28;20572;-59
2021/11/04 02:15:49;;;;;;;96.23;40.90;;;6.60;99.90;;;;;;5072361;28;20211;-60
2021/11/04 02:18:17;;;;;;;87.40;38.23;;;6.60;99.90;;;;;;5072583;28;20215;-59
2021/11/04 02:20:58;;;;;;;87.67;36.80;;;6.60;99.90;;;;;;5072632;28;20296;-60
2021/11/04 02:23:33;;;;;;;95.37;38.13;;;6.50;99.90;;;;;;5072186;28;20225;-59
2021/11/04 02:26:03;;;;;;;88.33;37.20;;;6.50;99.90;;;;;;5072183;28;20645;-59
2021/11/04 02:28:30;;;;;;;92.43;37.73;;;6.50;99.90;;;;;;5072455;28;20624;-60
2021/11/04 02:30:58;;;;;;;98.10;40.00;;;6.50;99.20;;;;;;5072412;28;20209;-59
2021/11/04 02:33:25;;;;;;;91.90;38.50;;;6.50;16.50;;;;;;5072132;28;20282;-58
2021/11/04 02:35:53;;;;;;;101.17;39.07;;;6.50;1.00;;;;;;5071740;28;20209;-60
2021/11/04 02:38:21;;;;;;;89.10;38.37;;;6.50;1.00;;;;;;5072476;28;20205;-60
2021/11/04 02:40:49;;;;;;;107.13;41.00;;;6.50;21.20;;;;;;5072307;28;20208;-59
2021/11/04 02:43:17;;;;;;;101.23;40.00;;;6.50;68.70;;;;;;5072072;28;20739;-60
2021/11/04 02:45:45;;;;;;;102.67;41.97;;;6.50;99.90;;;;;;5071755;28;20300;-59
2021/11/04 02:48:12;;;;;;;108.07;41.60;;;6.50;99.90;;;;;;5072030;28;20197;-59
2021/11/04 02:50:39;;;;;;;95.50;39.23;;;6.50;99.90;;;;;;5071941;28;20664;-59
2021/11/04 02:53:06;;;;;;;97.17;38.67;;;6.60;99.90;;;;;;5072135;28;20224;-60
2021/11/04 02:55:34;;;;;;;93.77;39.10;;;6.50;99.90;;;;;;5071880;28;20558;-62
2021/11/04 02:58:06;;;;;;;106.07;40.90;;;6.40;1.00;;;;;;5071978;28;20205;-62
2021/11/04 03:00:36;;;;;;;107.03;41.33;;;6.30;1.00;;;;;;5071905;28;20291;-62
2021/11/04 03:03:03;;;;;;;109.30;42.93;;;6.30;1.00;;;;;;5071622;28;20229;-61
2021/11/04 03:05:30;;;;;;;118.67;42.17;;;6.30;1.00;;;;;;5071809;28;20209;-62
2021/11/04 03:07:57;;;;;;;104.50;42.30;;;6.20;1.00;;;;;;5071886;28;20224;-61
2021/11/04 03:10:25;;;;;;;111.60;41.63;;;6.20;1.00;;;;;;5072029;28;20205;-62
2021/11/04 03:12:52;;;;;;;115.30;43.47;;;6.20;1.00;;;;;;5078197;28;20651;-61
2021/11/04 03:15:22;;;;;;;109.67;42.30;;;6.20;1.00;;;;;;5077991;28;20254;-62
2021/11/04 03:17:52;;;;;;;110.90;42.50;;;6.20;1.00;;;;;;5078696;28;20231;-63
2021/11/04 03:20:20;;;;;;;105.33;39.50;;;6.10;1.00;;;;;;5078634;28;20204;-62
2021/11/04 03:22:48;;;;;;;110.90;42.23;;;6.10;26.90;;;;;;5078517;28;20228;-61
2021/11/04 03:25:16;;;;;;;111.00;41.33;;;6.10;1.00;;;;;;5078103;28;20208;-61
2021/11/04 03:27:44;;;;;;;110.20;40.03;;;6.10;22.40;;;;;;5078409;28;20220;-61
2021/11/04 03:30:13;;;;;;;112.97;39.40;;;6.10;1.00;;;;;;5078282;28;20209;-62
2021/11/04 03:32:41;;;;;;;114.27;41.03;;;6.10;1.00;;;;;;5078178;28;20717;-61
2021/11/04 03:35:11;;;;;;;120.43;42.43;;;6.10;53.70;;;;;;5077987;28;20739;-61
2021/11/04 03:37:40;;;;;;;128.90;44.97;;;6.00;22.50;;;;;;5078324;28;20653;-61
2021/11/04 03:40:09;;;;;;;117.60;42.80;;;6.00;99.90;;;;;;5078344;28;20200;-61
2021/11/04 03:42:36;;;;;;;128.53;45.07;;;6.00;5.90;;;;;;5077949;28;20225;-62
2021/11/04 03:45:03;;;;;;;129.33;45.90;;;6.00;99.90;;;;;;5078075;28;20250;-62
2021/11/04 03:47:32;;;;;;;118.63;44.03;;;6.00;99.90;;;;;;5078239;28;20224;-61
2021/11/04 03:49:59;;;;;;;118.40;42.67;;;6.10;99.90;;;;;;5078225;28;20205;-61
2021/11/04 03:52:28;;;;;;;125.53;46.87;;;6.20;7.90;;;;;;5078151;28;20278;-62
2021/11/04 03:54:56;;;;;;;129.43;46.10;;;6.10;1.00;;;;;;5077762;28;20205;-61
2021/11/04 03:57:25;;;;;;;121.63;44.90;;;6.00;33.20;;;;;;5078191;28;20212;-61
2021/11/04 03:59:52;;;;;;;134.40;49.63;;;6.00;99.90;;;;;;5078158;28;20262;-61
2021/11/04 04:02:21;;;;;;;143.07;48.17;;;6.00;1.00;;;;;;5078238;28;20225;-61
2021/11/04 04:04:52;;;;;;;152.90;48.07;;;6.00;19.40;;;;;;5077610;28;20634;-62
2021/11/04 04:07:19;;;;;;;155.50;47.93;;;5.90;99.90;;;;;;5078092;28;20311;-62
2021/11/04 04:09:48;;;;;;;148.40;48.07;;;5.90;99.90;;;;;;5077806;28;20756;-62
2021/11/04 04:12:15;;;;;;;144.83;46.40;;;5.90;1.00;;;;;;5077990;28;20229;-60
2021/11/04 04:14:41;;;;;;;146.37;48.67;;;5.90;1.00;;;;;;5077636;28;20209;-61
2021/11/04 04:17:08;;;;;;;145.97;48.80;;;5.90;99.90;;;;;;5077875;28;20262;-61
2021/11/04 04:19:35;;;;;;;162.63;51.03;;;5.90;99.90;;;;;;5078012;28;20661;-61
2021/11/04 04:22:02;;;;;;;157.67;49.63;;;5.90;99.90;;;;;;5077662;28;20236;-62
2021/11/04 04:24:28;;;;;;;158.40;50.73;;;5.90;99.90;;;;;;5074142;28;20242;-61
2021/11/04 04:26:56;;;;;;;164.03;51.33;;;5.80;1.00;;;;;;5074540;28;20274;-62
2021/11/04 04:29:23;;;;;;;157.43;50.50;;;5.80;1.00;;;;;;5074697;28;20204;-62
2021/11/04 04:31:50;;;;;;;153.63;50.13;;;5.80;97.10;;;;;;5074553;28;20207;-61
2021/11/04 04:34:16;;;;;;;165.47;51.30;;;5.80;99.90;;;;;;5074498;28;20670;-62
2021/11/04 04:36:43;;;;;;;153.47;48.60;;;5.80;99.90;;;;;;5074005;28;20197;-61
2021/11/04 04:39:10;;;;;;;161.57;49.30;;;5.80;99.90;;;;;;5074578;28;20262;-61
2021/11/04 04:41:37;;;;;;;159.97;50.33;;;5.80;99.90;;;;;;5074621;28;20212;-62
2021/11/04 04:44:05;;;;;;;152.50;49.30;;;5.90;1.00;;;;;;5074424;28;20229;-62
2021/11/04 04:46:32;;;;;;;150.53;48.90;;;5.90;1.00;;;;;;5073784;28;20264;-61
2021/11/04 04:48:59;;;;;;;170.17;52.63;;;5.90;1.00;;;;;;5074319;28;20212;-61
2021/11/04 04:51:25;;;;;;;156.83;50.40;;;5.80;1.00;;;;;;5074019;28;20562;-61
2021/11/04 04:53:52;;;;;;;159.17;50.97;;;5.90;1.00;;;;;;5074326;28;20239;-61
2021/11/04 04:56:19;;;;;;;163.47;51.00;;;5.90;1.00;;;;;;5074196;28;20299;-62
2021/11/04 04:58:46;;;;;;;154.67;49.70;;;5.90;1.00;;;;;;5075111;28;20625;-61
2021/11/04 05:01:14;;;;;;;164.93;50.73;;;5.90;1.00;;;;;;5074053;28;20209;-61
2021/11/04 05:03:41;;;;;;;157.30;48.73;;;5.90;1.00;;;;;;5073544;28;20244;-61
2021/11/04 05:06:08;;;;;;;167.57;50.57;;;5.90;99.90;;;;;;5073484;28;20244;-61
2021/11/04 05:08:34;;;;;;;154.67;47.70;;;5.90;1.00;;;;;;5073961;28;20229;-62
2021/11/04 05:11:01;;;;;;;151.27;49.30;;;5.90;1.00;;;;;;5074048;28;20328;-62
2021/11/04 05:13:28;;;;;;;147.10;47.10;;;5.90;1.00;;;;;;5073778;28;20232;-61
2021/11/04 05:15:54;;;;;;;141.20;48.23;;;6.00;99.90;;;;;;5073379;28;20286;-63
2021/11/04 05:18:22;;;;;;;133.87;45.90;;;6.10;99.90;;;;;;5070437;28;20201;-61
2021/11/04 05:20:49;;;;;;;128.33;44.73;;;6.20;99.90;;;;;;5073706;28;20270;-61
2021/11/04 05:23:16;;;;;;;129.10;46.13;;;6.20;1.00;;;;;;5073635;28;20255;-61
2021/11/04 05:25:42;;;;;;;133.80;46.23;;;6.10;1.00;;;;;;5073147;28;20208;-61
2021/11/04 05:28:09;;;;;;;135.43;45.27;;;6.10;99.90;;;;;;5073453;28;20270;-61
2021/11/04 05:30:36;;;;;;;127.83;45.97;;;6.10;99.90;;;;;;5069981;28;20618;-61
2021/11/04 05:33:03;;;;;;;132.27;46.67;;;6.10;99.90;;;;;;5071919;28;20275;-60
2021/11/04 05:35:31;;;;;;;137.40;48.73;;;6.00;99.90;;;;;;5071769;28;20201;-61
2021/11/04 05:37:58;;;;;;;128.60;45.83;;;6.00;99.90;;;;;;5072860;28;20197;-61
2021/11/04 05:40:24;;;;;;;139.37;46.57;;;6.00;1.00;;;;;;5067459;28;20204;-61
2021/11/04 05:42:52;;;;;;;122.73;43.87;;;6.00;1.00;;;;;;5068925;28;20944;-60
2021/11/04 05:45:18;;;;;;;139.10;45.97;;;6.10;99.90;;;;;;5072266;28;20288;-61
2021/11/04 05:47:45;;;;;;;125.70;44.23;;;6.10;99.90;;;;;;5072433;28;20252;-60
2021/11/04 05:50:13;;;;;;;128.73;45.07;;;6.10;99.90;;;;;;5072540;28;20278;-61
2021/11/04 05:52:41;;;;;;;123.50;42.87;;;6.20;99.90;;;;;;5072217;28;20225;-61
2021/11/04 05:55:08;;;;;;;116.83;42.87;;;6.20;1.00;;;;;;5072254;28;20205;-61
2021/11/04 05:57:34;;;;;;;115.83;42.83;;;6.20;99.90;;;;;;5072457;28;20573;-61
2021/11/04 06:00:01;;;;;;;114.30;43.30;;;6.20;99.90;;;;;;5072080;28;20250;-60
2021/11/04 06:02:28;;;;;;;126.53;43.70;;;6.20;99.90;;;;;;5072083;28;20229;-60
2021/11/04 06:04:54;;;;;;;120.83;44.40;;;6.10;1.00;;;;;;5072072;28;20211;-57
2021/11/04 06:07:21;;;;;;;126.10;44.60;;;6.10;2.80;;;;;;5072199;28;20224;-61
2021/11/04 06:09:49;;;;;;;129.47;45.07;;;6.10;1.00;;;;;;5072293;28;20231;-60
2021/11/04 06:12:16;;;;;;;134.70;45.43;;;6.00;1.00;;;;;;5071479;28;20221;-61
2021/11/04 06:14:42;;;;;;;131.00;44.73;;;6.00;99.90;;;;;;5070879;28;20329;-60
2021/11/04 06:17:09;;;;;;;128.53;44.30;;;6.00;99.90;;;;;;5072479;28;20220;-61
2021/11/04 06:19:36;;;;;;;133.50;45.77;;;5.90;99.90;;;;;;5072335;28;20209;-58
2021/11/04 06:22:04;;;;;;;131.53;45.10;;;6.00;99.90;;;;;;5071693;28;20225;-61
2021/11/04 06:24:30;;;;;;;131.57;44.60;;;6.00;99.90;;;;;;5071923;28;20262;-61
2021/11/04 06:26:58;;;;;;;133.97;45.23;;;5.90;99.90;;;;;;5071133;28;20209;-62
2021/11/04 06:29:25;;;;;;;129.93;45.03;;;5.90;99.90;;;;;;5070831;28;20238;-62
2021/11/04 06:31:52;;;;;;;134.50;44.53;;;5.90;99.90;;;;;;5071705;28;20254;-64
2021/11/04 06:34:18;;;;;;;134.57;44.27;;;5.90;99.90;;;;;;5072057;28;20205;-62
2021/11/04 06:36:45;;;;;;;134.57;45.60;;;5.90;99.90;;;;;;5071456;28;20661;-63
2021/11/04 06:39:12;;;;;;;140.67;44.37;;;5.90;99.90;;;;;;5071922;28;20212;-63
2021/11/04 06:41:39;;;;;;;119.43;44.10;;;5.90;1.00;;;;;;5071202;28;20212;-64
2021/11/04 06:44:07;;;;;;;129.27;43.27;;;5.80;99.90;;;;;;5071714;28;20236;-64
2021/11/04 06:46:34;;;;;;;147.60;43.93;;;5.80;99.90;;;;;;5070978;28;20211;-67
2021/11/04 06:49:05;;;;;;;141.93;46.80;;;6.20;99.90;;;;;;5071209;28;20217;-69
2021/11/04 06:51:35;;;;;;;121.53;42.00;;;6.30;99.90;;;;;;5071504;28;20217;-65
2021/11/04 06:54:04;;;;;;;122.20;43.73;;;6.50;99.90;;;;;;5071257;28;20235;-65
2021/11/04 06:56:39;;;;;;;108.70;40.43;;;6.60;99.90;;;;;;5071127;28;20213;-68
2021/11/04 06:59:16;;;;;;;104.80;39.80;;;6.60;1.00;;;;;;5071682;28;20235;-69
2021/11/04 07:01:49;;;;;;;92.43;35.43;;;6.70;99.90;;;;;;5071217;28;20280;-70
2021/11/04 07:04:23;;;;;;;94.80;39.03;;;6.70;1.00;;;;;;5071399;28;20635;-70
2021/11/04 07:07:00;;;;;;;90.77;35.90;;;6.70;1.00;;;;;;5069989;28;20197;-69
2021/11/04 07:09:28;;;;;;;83.90;35.40;;;6.70;23.70;;;;;;5071427;28;20582;-67
2021/11/04 07:11:56;;;;;;;86.23;36.57;;;6.60;66.70;;;;;;5070817;28;20627;-62
2021/11/04 07:14:27;;;;;;;91.47;35.67;;;6.50;1.00;;;;;;5071699;28;20209;-63
2021/11/04 07:16:54;;;;;;;88.63;34.93;;;6.30;1.00;;;;;;5071019;28;20673;-63
2021/11/04 07:19:22;;;;;;;87.03;36.47;;;6.20;1.00;;;;;;5071323;28;20205;-63
2021/11/04 07:21:59;;;;;;;87.53;36.37;;;6.10;1.00;;;;;;5071558;28;20221;-64
2021/11/04 07:24:31;;;;;;;93.03;36.93;;;6.20;1.00;;;;;;5071494;28;20200;-64
2021/11/04 07:27:06;;;;;;;87.37;34.27;;;6.10;1.00;;;;;;5071152;28;20787;-65
2021/11/04 07:29:41;;;;;;;91.43;34.23;;;6.00;1.00;;;;;;5070897;28;20220;-64
2021/11/04 07:32:09;;;;;;;89.23;33.87;;;5.90;1.80;;;;;;5070977;28;20289;-66
2021/11/04 07:34:36;;;;;;;92.87;33.33;;;5.90;99.90;;;;;;5070913;28;20213;-65
2021/11/04 07:37:05;;;;;;;83.57;33.10;;;5.90;99.90;;;;;;5071235;28;20586;-64
2021/11/04 07:39:32;;;;;;;80.97;31.67;;;6.00;99.90;;;;;;5071277;28;20205;-63
2021/11/04 07:41:59;;;;;;;89.37;34.57;;;5.90;99.90;;;;;;5070254;28;20217;-63
2021/11/04 07:44:27;;;;;;;82.40;31.87;;;5.90;99.90;;;;;;5071207;28;20586;-63
2021/11/04 07:46:56;;;;;;;90.03;31.33;;;5.90;99.90;;;;;;5071117;28;20205;-62
2021/11/04 07:49:22;;;;;;;84.77;31.57;;;5.90;99.90;;;;;;5071006;28;20235;-63
2021/11/04 07:51:50;;;;;;;87.20;32.53;;;5.80;99.90;;;;;;5070876;28;20291;-66
2021/11/04 07:54:17;;;;;;;94.30;33.57;;;5.80;99.90;;;;;;5071139;28;20209;-68
2021/11/04 07:56:44;;;;;;;94.53;32.93;;;5.80;1.00;;;;;;5070823;28;20209;-68
2021/11/04 07:59:10;;;;;;;86.80;33.40;;;5.80;1.00;;;;;;5073490;28;20201;-65
2021/11/04 08:01:37;;;;;;;86.23;32.77;;;5.80;1.00;;;;;;5074859;28;20284;-65
2021/11/04 08:04:05;;;;;;;88.03;33.17;;;5.80;1.00;;;;;;5074392;28;20241;-64
2021/11/04 08:06:32;;;;;;;88.40;32.53;;;5.90;1.00;;;;;;5074561;28;20213;-64
2021/11/04 08:08:58;;;;;;;87.27;33.03;;;5.90;56.30;;;;;;5074605;28;20232;-64
2021/11/04 08:11:25;;;;;;;83.13;32.20;;;5.90;99.90;;;;;;5074211;28;20258;-63
2021/11/04 08:13:52;;;;;;;82.37;31.50;;;6.00;99.90;;;;;;5074456;28;20237;-65
2021/11/04 08:16:18;;;;;;;90.23;32.10;;;5.90;99.90;;;;;;5073936;28;20213;-65
2021/11/04 08:18:45;;;;;;;88.10;31.23;;;5.90;1.00;;;;;;5074433;28;20205;-63
2021/11/04 08:21:13;;;;;;;87.87;31.27;;;6.00;1.00;;;;;;5073939;28;20266;-64
2021/11/04 08:23:40;;;;;;;89.63;30.90;;;6.00;99.90;;;;;;5074086;28;20224;-64
2021/11/04 08:26:07;;;;;;;79.13;30.63;;;6.10;99.90;;;;;;5073567;28;20201;-64
2021/11/04 08:28:34;;;;;;;79.33;30.43;;;6.20;1.00;;;;;;5074113;28;20220;-65
2021/11/04 08:31:01;;;;;;;81.10;29.67;;;6.20;99.90;;;;;;5073829;28;20270;-64
2021/11/04 08:33:27;;;;;;;82.17;30.67;;;6.20;99.90;;;;;;5074011;28;20225;-65
2021/11/04 08:35:54;;;;;;;75.70;28.47;;;6.20;1.00;;;;;;5073638;28;20205;-65
2021/11/04 08:38:22;;;;;;;77.97;31.60;;;6.10;1.00;;;;;;5073840;28;20209;-64
2021/11/04 08:40:49;;;;;;;81.43;31.80;;;6.10;1.00;;;;;;5074289;28;20205;-64
2021/11/04 08:43:15;;;;;;;90.43;31.53;;;6.20;1.00;;;;;;5074418;28;20221;-63
2021/11/04 08:45:42;;;;;;;80.23;31.70;;;6.20;1.00;;;;;;5073571;28;20681;-64
2021/11/04 08:48:09;;;;;;;76.50;29.70;;;6.30;1.00;;;;;;5074254;28;20332;-63
2021/11/04 08:50:36;;;;;;;74.17;30.17;;;6.30;1.00;;;;;;5074040;28;20258;-63
2021/11/04 08:53:02;;;;;;;84.67;32.53;;;6.30;1.00;;;;;;5073416;28;20237;-63
2021/11/04 08:55:30;;;;;;;88.93;32.57;;;6.30;1.00;;;;;;5073467;28;20209;-62
2021/11/04 08:57:57;;;;;;;87.93;32.43;;;6.40;1.00;;;;;;5073602;28;20235;-63
2021/11/04 09:00:24;;;;;;;85.50;32.20;;;6.40;1.00;;;;;;5073613;28;20573;-62
2021/11/04 09:02:51;;;;;;;91.40;31.33;;;6.40;1.00;;;;;;5073462;28;20225;-63
2021/11/04 09:05:17;;;;;;;97.20;31.97;;;6.50;1.00;;;;;;5073332;28;20545;-62
2021/11/04 09:07:45;;;;;;;94.87;33.97;;;6.40;1.00;;;;;;5073168;28;20208;-64
2021/11/04 09:10:14;;;;;;;101.27;33.10;;;6.40;1.00;;;;;;5073106;28;20213;-63
2021/11/04 09:12:43;;;;;;;92.53;30.67;;;6.50;1.00;;;;;;5073231;28;20229;-63
2021/11/04 09:15:11;;;;;;;94.47;31.70;;;6.50;23.70;;;;;;5073093;28;20205;-64
2021/11/04 09:17:38;;;;;;;94.93;32.73;;;6.60;1.00;;;;;;5073396;28;20204;-63
2021/11/04 09:20:07;;;;;;;79.13;29.27;;;6.70;1.00;;;;;;5072944;28;20201;-61
2021/11/04 09:22:34;;;;;;;74.23;29.10;;;6.70;1.00;;;;;;5072840;28;20236;-67
2021/11/04 09:25:01;;;;;;;78.93;29.20;;;6.80;1.00;;;;;;5072669;28;20685;-64
2021/11/04 09:27:28;;;;;;;68.93;26.73;;;6.80;99.90;;;;;;5072994;28;20250;-65
2021/11/04 09:29:57;;;;;;;65.30;26.43;;;6.90;99.90;;;;;;5072964;28;20576;-64
2021/11/04 09:32:24;;;;;;;65.73;26.63;;;6.90;99.90;;;;;;5072429;28;20267;-62
2021/11/04 09:34:51;;;;;;;57.63;25.87;;;7.00;99.90;;;;;;5072377;28;20224;-62
2021/11/04 09:37:18;;;;;;;60.03;26.50;;;7.10;1.00;;;;;;5073053;28;20231;-64
2021/11/04 09:39:47;;;;;;;60.10;26.17;;;7.10;1.00;;;;;;5072777;28;20255;-62
2021/11/04 09:42:18;;;;;;;58.27;25.43;;;7.10;1.00;;;;;;5072642;28;20302;-62
2021/11/04 09:44:45;;;;;;;58.97;25.57;;;7.10;1.00;;;;;;5072052;28;20204;-62
2021/11/04 09:47:13;;;;;;;63.47;26.93;;;7.20;1.00;;;;;;5072640;28;20205;-62
2021/11/04 09:49:40;;;;;;;62.03;26.87;;;7.40;1.00;;;;;;5072694;28;20229;-62
2021/11/04 09:52:07;;;;;;;63.40;26.00;;;7.50;1.00;;;;;;5072474;28;20626;-63
2021/11/04 09:54:33;;;;;;;68.03;27.40;;;7.60;99.90;;;;;;5072448;28;20209;-64
2021/11/04 09:57:00;;;;;;;64.50;28.97;;;7.70;99.90;;;;;;5072432;28;20206;-64
2021/11/04 09:59:27;;;;;;;72.03;30.63;;;7.80;99.90;;;;;;5072437;28;20205;-64
2021/11/04 10:01:53;;;;;;;75.93;31.47;;;7.90;99.90;;;;;;5071736;28;20689;-62
2021/11/04 10:04:34;;;;;;;82.13;32.87;;;7.90;99.90;;;;;;5072047;28;20221;-63
2021/11/04 10:07:01;;;;;;;83.83;34.03;;;7.80;99.90;;;;;;5072203;28;20667;-64
2021/11/04 10:09:29;;;;;;;88.63;33.90;;;7.80;99.90;;;;;;5071898;28;20721;-63
2021/11/04 10:11:56;;;;;;;89.60;33.83;;;7.70;99.90;;;;;;5071675;28;20244;-63
2021/11/04 10:14:23;;;;;;;83.57;33.03;;;7.70;99.90;;;;;;5071747;28;20213;-62
2021/11/04 10:16:50;;;;;;;94.03;32.47;;;7.70;99.90;;;;;;5071929;28;20205;-61
2021/11/04 10:19:19;;;;;;;92.77;33.97;;;7.60;99.90;;;;;;5072052;28;20202;-62
2021/11/04 10:21:48;;;;;;;95.37;34.73;;;7.60;99.90;;;;;;5070839;28;20212;-61
2021/11/04 10:24:17;;;;;;;78.17;32.57;;;7.60;99.90;;;;;;5071966;28;20209;-61
2021/11/04 10:26:44;;;;;;;88.27;32.30;;;7.60;99.90;;;;;;5071335;28;20206;-61
2021/11/04 10:29:13;;;;;;;76.00;30.57;;;7.60;99.90;;;;;;5071939;28;20229;-63
2021/11/04 10:31:43;;;;;;;77.70;30.37;;;7.60;99.90;;;;;;5071730;28;20206;-62
2021/11/04 10:34:13;;;;;;;78.90;30.93;;;7.60;99.90;;;;;;5071561;28;20305;-62
2021/11/04 10:36:43;;;;;;;74.80;30.03;;;7.60;99.90;;;;;;5071425;28;20244;-61
2021/11/04 10:39:12;;;;;;;80.87;31.10;;;7.60;99.90;;;;;;5071116;28;20569;-61
2021/11/04 10:41:41;;;;;;;82.97;32.63;;;7.60;99.90;;;;;;5070542;28;20198;-60
2021/11/04 10:44:09;;;;;;;83.17;32.03;;;7.50;99.90;;;;;;5071400;28;20206;-61
2021/11/04 10:46:41;;;;;;;76.33;30.27;;;7.60;99.90;;;;;;5071381;28;20211;-62
2021/11/04 10:49:09;;;;;;;79.70;32.80;;;7.70;99.90;;;;;;5071453;28;20228;-61
2021/11/04 10:51:36;;;;;;;74.93;31.03;;;7.70;99.90;;;;;;5071043;28;20205;-62
2021/11/04 10:54:05;;;;;;;67.23;29.93;;;7.70;99.90;;;;;;5071109;28;20238;-62
2021/11/04 10:56:35;;;;;;;76.23;31.90;;;7.60;99.90;;;;;;5071233;28;20625;-61
2021/11/04 10:59:05;;;;;;;79.63;33.43;;;7.60;99.90;;;;;;5072011;28;20207;-61
2021/11/04 11:01:35;;;;;;;89.97;34.83;;;7.70;99.90;;;;;;5071257;28;20214;-61
2021/11/04 11:04:07;;;;;;;90.50;34.20;;;7.70;99.90;;;;;;5070996;28;20615;-61
2021/11/04 11:06:35;;;;;;;87.47;34.00;;;7.60;99.90;;;;;;5070858;28;20217;-62
2021/11/04 11:09:05;;;;;;;89.73;36.27;;;7.60;99.90;;;;;;5071429;28;20225;-61
2021/11/04 11:11:34;;;;;;;97.70;38.00;;;7.60;99.90;;;;;;5071061;28;20255;-61
2021/11/04 11:14:01;;;;;;;100.63;37.73;;;7.60;99.90;;;;;;5070980;28;20236;-60
2021/11/04 11:16:29;;;;;;;100.97;39.10;;;7.60;99.90;;;;;;5071026;28;20226;-60
2021/11/04 11:18:59;;;;;;;99.33;40.10;;;7.60;1.00;;;;;;5071067;28;20201;-61
2021/11/04 11:21:33;;;;;;;94.73;38.73;;;7.60;1.00;;;;;;5070884;28;20617;-66
2021/11/04 11:24:01;;;;;;;93.03;38.40;;;7.70;1.00;;;;;;5071395;28;20240;-66
2021/11/04 11:26:28;;;;;;;99.30;40.30;;;7.80;99.90;;;;;;5070953;28;20206;-66
2021/11/04 11:28:59;;;;;;;96.37;40.57;;;7.90;99.90;;;;;;5071417;28;20223;-67
2021/11/04 11:31:27;;;;;;;93.10;38.90;;;7.90;99.90;;;;;;5070562;28;20228;-72
2021/11/04 11:34:20;;;;;;;103.70;43.20;;;7.90;99.90;;;;;;5074828;28;20230;-71
2021/11/04 11:37:13;;;;;;;100.47;41.70;;;8.10;99.90;;;;;;5074725;28;20259;-61
2021/11/04 11:39:42;;;;;;;91.60;41.93;;;8.00;99.90;;;;;;5060587;28;20202;-59
2021/11/04 11:42:11;;;;;;;96.53;43.27;;;8.00;99.90;;;;;;5074755;28;20570;-61
2021/11/04 11:44:45;;;;;;;96.47;43.53;;;8.10;99.90;;;;;;5074657;28;20215;-60
2021/11/04 11:47:17;;;;;;;88.70;40.57;;;8.20;99.90;;;;;;5075151;28;20613;-60
2021/11/04 11:49:46;;;;;;;89.57;41.83;;;8.20;99.90;;;;;;5074501;28;20932;-61
2021/11/04 11:52:48;;;;;;;86.87;41.80;;;8.30;99.90;;;;;;5074120;28;20236;-60
2021/11/04 11:55:15;;;;;;;80.57;39.13;;;8.20;99.90;;;;;;5073440;28;20625;-61
2021/11/04 11:58:22;;;;;;;81.57;40.47;;;8.10;99.90;;;;;;5073463;28;20671;-60
2021/11/04 12:00:55;;;;;;;78.13;39.87;;;8.10;99.90;;;;;;5074651;28;20202;-58
2021/11/04 12:03:48;;;;;;;78.70;39.67;;;8.20;99.90;;;;;;5074626;28;20240;-61
2021/11/04 12:06:50;;;;;;;77.83;38.80;;;8.20;99.90;;;;;;5073946;28;20215;-62
2021/11/04 12:09:47;;;;;;;76.47;38.97;;;8.20;99.90;;;;;;5071800;28;20319;-62
2021/11/04 12:12:45;;;;;;;77.57;38.97;;;8.20;99.90;;;;;;5011881;28;20665;-64
2021/11/04 12:15:12;;;;;;;74.07;39.07;;;8.30;99.90;;;;;;5072473;28;20211;-63
2021/11/04 12:17:40;;;;;;;69.57;38.40;;;8.30;99.90;;;;;;5074298;28;20212;-62
2021/11/04 12:20:08;;;;;;;71.83;37.67;;;8.40;99.90;;;;;;5074133;28;20203;-62
2021/11/04 12:22:39;;;;;;;73.13;39.20;;;8.50;99.90;;;;;;5073913;28;20734;-62
2021/11/04 12:25:08;;;;;;;74.53;38.83;;;8.50;99.90;;;;;;5073875;28;20212;-61
2021/11/04 12:27:37;;;;;;;80.97;36.80;;;8.50;95.20;;;;;;5074008;28;20649;-63
2021/11/04 12:30:23;;;;;;;74.47;39.10;;;8.60;99.90;;;;;;5073935;28;20388;-63
2021/11/04 12:32:59;;;;;;;72.73;38.70;;;8.70;99.90;;;;;;5073961;28;20235;-57
2021/11/04 12:35:26;;;;;;;66.87;37.67;;;8.60;99.90;;;;;;5073686;28;20206;-61
2021/11/04 12:37:53;;;;;;;73.67;39.33;;;8.80;99.90;;;;;;5073684;28;20216;-62
2021/11/04 12:40:20;;;;;;;67.80;37.03;;;8.80;93.80;;;;;;5073824;28;20207;-60
2021/11/04 12:42:46;;;;;;;66.60;38.67;;;8.90;77.80;;;;;;5073550;28;20713;-58
2021/11/04 12:45:25;;;;;;;70.37;37.57;;;8.90;37.20;;;;;;5072870;28;20261;-60